To NAV CANADA Home Page Login to a new session Search on AWWS site Disclaimer Vers la page française équivalente Tips FAQ What's new on the site To the Forecasts and Observations / NOTAM section To "File a Flight Plan" website Publications and other links Update of the User's profile FIC Telephone Numbers My Weather Data Folder Route Weather Data Regional Weather Data Local Weather Data To the Forecasts and Observations / NOTAM section
Request Generated 07/30/2021 at 06:52:17 UTC . Weather information available at that time is displayed.

METAR/TAF

IQALUIT/NU    

METAR CYFB 300600Z 32004KT 15SM BKN060 09/07 A2988 RMK SC6 SLP122=
METAR CYFB 300500Z 32002KT 15SM SCT060 BKN140 09/06 A2989 RMK SC3AC2 SLP125=
METAR CYFB 300400Z 30004KT 15SM SCT060 BKN140 07/05 A2990 RMK SC3AC2 SLP128=

TAF CYFB 300538Z 3006/3106 VRB03KT P6SM SCT060 BKN140
FM300900 VRB03KT P6SM SCT015 BKN030 TEMPO 3009/3015 P6SM -SHRA
BKN015 BKN030
FM301500 VRB03KT P6SM FEW040 SCT080 BKN200
FM302100 VRB03KT P6SM BKN040 OVC080 TEMPO 3021/3106 6SM -SHRA
BKN020 OVC040
RMK NXT FCST BY 301200Z=
Your time UTC time
Weather data provided by Environment Canada and NAV CANADA